Time;durP1;ratioP1;P1;durP2;ratioP2;P2;SDS_P1;SDS_P2;PMS_P1;PMS_P2;Temp;Humidity;BMP_temperature;BMP_pressure;BME280_temperature;BME280_humidity;BME280_pressure;Samples;Min_cycle;Max_cycle;Signal;HPM_P1;HPM_P2
2022/10/23 00:01:20;;;;;;;11.83;2.80;;;;;;;14.85;100.00;151385.42;1807166;78;21056;-63
2022/10/23 00:03:49;;;;;;;11.65;3.20;;;;;;;14.85;100.00;151385.42;1801958;79;21566;-62
2022/10/23 00:06:16;;;;;;;11.93;2.83;;;;;;;14.84;100.00;151382.81;1780640;78;21074;-62
2022/10/23 00:08:44;;;;;;;10.75;2.80;;;;;;;14.84;100.00;151381.55;1807516;78;21082;-62
2022/10/23 00:11:14;;;;;;;15.88;2.98;;;;;;;14.85;100.00;151384.14;1791229;78;21529;-63
2022/10/23 00:13:40;;;;;;;13.70;3.05;;;;;;;14.86;100.00;151388.03;1802712;79;21052;-63
2022/10/23 00:16:09;;;;;;;9.78;2.80;;;;;;;14.86;100.00;151386.75;1802772;78;21231;-63
2022/10/23 00:18:36;;;;;;;12.68;2.72;;;;;;;14.85;100.00;151385.42;1803032;78;21024;-63
2022/10/23 00:21:06;;;;;;;14.33;3.50;;;;;;;14.85;100.00;151385.42;1804850;78;21052;-65
2022/10/23 00:23:33;;;;;;;17.42;3.17;;;;;;;14.85;100.00;151385.42;1807879;78;21110;-63
2022/10/23 00:26:02;;;;;;;9.23;2.90;;;;;;;14.85;100.00;151384.14;1806186;78;21420;-63
2022/10/23 00:28:29;;;;;;;9.13;2.67;;;;;;;14.87;100.00;151389.34;1802778;78;21226;-63
2022/10/23 00:30:56;;;;;;;10.38;3.05;;;;;;;14.87;100.00;151390.63;1802583;78;20934;-63
2022/10/23 00:33:24;;;;;;;9.68;2.75;;;;;;;14.88;100.00;151393.22;1811118;78;21021;-63
2022/10/23 00:35:51;;;;;;;8.63;3.30;;;;;;;14.89;100.00;151395.83;1808967;78;20992;-63
2022/10/23 00:38:18;;;;;;;12.43;3.10;;;;;;;14.89;100.00;151395.83;1802795;78;21511;-63
2022/10/23 00:40:45;;;;;;;16.60;3.20;;;;;;;14.90;100.00;151397.16;1802851;78;21123;-63
2022/10/23 00:43:19;;;;;;;15.48;4.00;;;;;;;14.90;100.00;151398.42;1807374;78;21019;-64
2022/10/23 00:45:46;;;;;;;11.88;2.98;;;;;;;14.90;100.00;151398.42;1818949;78;20943;-63
2022/10/23 00:48:13;;;;;;;16.05;3.22;;;;;;;14.90;100.00;151397.16;1817011;78;21098;-63
2022/10/23 00:50:40;;;;;;;11.40;3.35;;;;;;;14.90;100.00;151397.16;1802556;78;21032;-62
2022/10/23 00:53:06;;;;;;;12.13;3.35;;;;;;;14.89;100.00;151395.83;1787560;79;21811;-64
2022/10/23 00:55:33;;;;;;;14.75;3.12;;;;;;;14.89;100.00;151395.83;1806919;78;21588;-63
2022/10/23 00:58:00;;;;;;;16.80;3.85;;;;;;;14.89;100.00;151395.83;1807339;78;21004;-63
2022/10/23 01:00:31;;;;;;;13.30;3.45;;;;;;;14.90;100.00;151398.42;1807024;78;21004;-64
2022/10/23 01:02:58;;;;;;;13.83;3.17;;;;;;;14.89;100.00;151395.83;1802700;79;20978;-63
2022/10/23 01:05:32;;;;;;;14.65;3.15;;;;;;;14.89;100.00;151395.83;1803703;78;21130;-62
2022/10/23 01:08:09;;;;;;;15.95;3.72;;;;;;;14.90;100.00;151397.16;1802633;79;21029;-62
2022/10/23 01:10:44;;;;;;;13.38;3.10;;;;;;;14.89;100.00;151395.83;1802740;78;21712;-62
2022/10/23 01:13:40;;;;;;;13.25;3.45;;;;;;;14.89;100.00;151395.83;1805394;78;21577;-63
2022/10/23 01:16:21;;;;;;;12.28;2.90;;;;;;;14.90;100.00;151398.42;1806911;78;21518;-62
2022/10/23 01:18:57;;;;;;;15.13;3.20;;;;;;;14.90;100.00;151398.42;1825489;78;22151;-61
2022/10/23 01:21:49;;;;;;;16.50;3.45;;;;;;;14.92;100.00;151401.03;1801276;79;21156;-62
2022/10/23 01:24:32;;;;;;;12.63;3.37;;;;;;;14.92;100.00;151401.03;1811381;78;21110;-62
2022/10/23 01:27:25;;;;;;;17.20;3.27;;;;;;;14.92;100.00;151401.03;1802749;78;21016;-63
2022/10/23 01:30:08;;;;;;;18.65;3.75;;;;;;;14.92;100.00;151401.03;1802411;78;21072;-63
2022/10/23 01:33:09;;;;;;;9.13;2.92;;;;;;;14.89;100.00;151395.83;1802516;78;21497;-64
2022/10/23 01:36:00;;;;;;;20.40;3.40;;;;;;;14.89;100.00;151394.55;1801951;78;21036;-63
2022/10/23 01:38:34;;;;;;;20.05;3.60;;;;;;;14.88;100.00;151393.22;1811619;78;21496;-62
2022/10/23 01:41:19;;;;;;;15.28;3.87;;;;;;;14.88;100.00;151393.22;1805903;78;21511;-62
2022/10/23 01:44:04;;;;;;;12.30;3.42;;;;;;;14.87;100.00;151390.63;1802669;78;21065;-62
2022/10/23 01:46:34;;;;;;;14.07;3.17;;;;;;;14.87;100.00;151390.63;1808137;78;21448;-62
2022/10/23 01:49:04;;;;;;;12.88;3.55;;;;;;;14.86;100.00;151388.03;1811286;78;20968;-63
2022/10/23 01:51:30;;;;;;;20.12;3.70;;;;;;;14.86;100.00;151388.03;1808779;78;20963;-63
2022/10/23 01:54:01;;;;;;;13.85;2.65;;;;;;;14.86;100.00;151388.03;1802668;78;21040;-64
2022/10/23 01:56:36;;;;;;;13.60;3.42;;;;;;;14.86;100.00;151388.03;1781477;79;21083;-65
2022/10/23 01:59:06;;;;;;;18.90;3.83;;;;;;;14.88;100.00;151393.22;1807341;78;21146;-65
2022/10/23 02:01:37;;;;;;;17.73;2.97;;;;;;;14.88;100.00;151393.22;1742187;81;21087;-65
2022/10/23 02:04:05;;;;;;;21.85;4.20;;;;;;;14.88;100.00;151393.22;1766533;79;21385;-65
2022/10/23 02:06:32;;;;;;;13.72;3.40;;;;;;;14.88;100.00;151393.22;1814783;78;20975;-65
2022/10/23 02:08:59;;;;;;;13.00;3.65;;;;;;;14.90;100.00;151398.42;1760130;80;21086;-65
2022/10/23 02:11:27;;;;;;;15.65;3.80;;;;;;;14.90;100.00;151397.16;1754600;81;20979;-65
2022/10/23 02:14:15;;;;;;;17.80;3.58;;;;;;;14.88;100.00;151393.22;1775494;79;21056;-65
2022/10/23 02:16:49;;;;;;;19.25;3.58;;;;;;;14.89;100.00;151394.55;1768574;81;21055;-64
2022/10/23 02:19:43;;;;;;;12.13;3.70;;;;;;;14.90;100.00;151398.42;1804344;78;20975;-64
2022/10/23 02:22:27;;;;;;;14.75;3.33;;;;;;;14.89;100.00;151395.83;1812411;78;21102;-65
2022/10/23 02:25:17;;;;;;;18.52;3.40;;;;;;;14.90;100.00;151398.42;1793027;78;21947;-64
2022/10/23 02:27:52;;;;;;;11.33;2.95;;;;;;;14.92;100.00;151402.34;1820354;78;21024;-65
2022/10/23 02:30:20;;;;;;;21.33;3.50;;;;;;;14.93;100.00;151404.95;1804631;78;20984;-65
2022/10/23 02:32:50;;;;;;;17.23;3.62;;;;;;;14.93;100.00;151404.95;1797268;78;21319;-64
2022/10/23 02:35:21;;;;;;;20.32;3.27;;;;;;;14.94;100.00;151406.28;1811579;78;20983;-64
2022/10/23 02:37:56;;;;;;;19.10;3.80;;;;;;;14.95;100.00;151408.88;1779802;79;21242;-65
2022/10/23 02:40:33;;;;;;;18.52;3.65;;;;;;;14.94;100.00;151407.56;1811900;78;21004;-64
2022/10/23 02:43:02;;;;;;;;;;;;;;;14.95;100.00;151408.88;1823128;78;21024;-65
2022/10/23 02:45:37;;;;;;;15.93;3.52;;;;;;;14.95;100.00;151408.88;1806715;78;20177;-65
2022/10/23 02:48:25;;;;;;;16.97;3.98;;;;;;;14.94;100.00;151407.56;1815327;78;21051;-64
2022/10/23 02:51:21;;;;;;;15.72;3.65;;;;;;;14.93;100.00;151403.67;1755743;80;21470;-64
2022/10/23 02:54:07;;;;;;;15.50;3.83;;;;;;;14.93;100.00;151403.67;1756142;80;21144;-65
2022/10/23 02:56:49;;;;;;;19.40;4.17;;;;;;;14.94;100.00;151407.56;1736800;80;21111;-64
2022/10/23 02:59:30;;;;;;;16.82;4.05;;;;;;;14.96;100.00;151411.48;1739279;81;21499;-65
2022/10/23 03:02:13;;;;;;;17.10;4.00;;;;;;;14.96;100.00;151411.48;1722206;81;21111;-63
2022/10/23 03:04:40;;;;;;;11.93;3.47;;;;;;;14.99;100.00;151419.28;1755442;80;22089;-63
2022/10/23 03:07:12;;;;;;;16.57;3.55;;;;;;;14.98;100.00;151416.69;1737340;80;21027;-63
2022/10/23 03:09:40;;;;;;;10.65;3.72;;;;;;;15.00;100.00;151421.88;1706093;80;21020;-63
2022/10/23 03:12:07;;;;;;;15.23;3.55;;;;;;;15.01;100.00;151424.48;1728407;81;20918;-63
2022/10/23 03:14:35;;;;;;;17.10;3.95;;;;;;;15.02;100.00;151427.09;1764117;80;22224;-63
2022/10/23 03:17:03;;;;;;;13.98;3.92;;;;;;;15.05;100.00;151434.89;1728251;81;21143;-62
2022/10/23 03:19:30;;;;;;;11.00;3.70;;;;;;;15.04;100.00;151432.28;1760231;80;21048;-64
2022/10/23 03:21:59;;;;;;;20.97;4.00;;;;;;;15.06;100.00;151437.48;1728351;81;21579;-65
2022/10/23 03:24:26;;;;;;;14.98;3.65;;;;;;;15.05;100.00;151434.89;1759710;80;21012;-63
2022/10/23 03:26:53;;;;;;;14.45;4.03;;;;;;;15.06;100.00;151437.48;1728111;81;21097;-64
2022/10/23 03:29:22;;;;;;;17.80;3.83;;;;;;;15.04;100.00;151432.28;1769831;80;21871;-66
2022/10/23 03:31:50;;;;;;;10.98;3.15;;;;;;;15.05;100.00;151434.89;1760980;79;21044;-66
2022/10/23 03:34:18;;;;;;;17.00;3.65;;;;;;;15.05;100.00;151434.89;1767611;81;21041;-64
2022/10/23 03:36:45;;;;;;;14.18;3.17;;;;;;;15.03;100.00;151429.69;1722389;81;21067;-65
2022/10/23 03:39:11;;;;;;;14.68;3.37;;;;;;;15.03;100.00;151431.02;1759688;81;21063;-64
2022/10/23 03:41:39;;;;;;;12.23;3.52;;;;;;;15.03;100.00;151431.02;1758061;81;21590;-64
2022/10/23 03:44:06;;;;;;;19.23;4.47;;;;;;;15.04;100.00;151432.28;1763493;81;21040;-64
2022/10/23 03:46:33;;;;;;;14.53;4.15;;;;;;;15.03;100.00;151429.69;1764342;81;21092;-66
2022/10/23 03:48:59;;;;;;;14.13;3.75;;;;;;;15.02;100.00;151428.36;1761037;81;21041;-66
2022/10/23 03:51:26;;;;;;;12.43;3.35;;;;;;;15.05;100.00;151434.89;1789228;79;21103;-66
2022/10/23 03:53:53;;;;;;;20.92;3.90;;;;;;;15.06;100.00;151437.48;1795967;79;21931;-66
2022/10/23 03:56:21;;;;;;;13.68;3.62;;;;;;;15.04;100.00;151432.28;1781205;79;21037;-65
2022/10/23 03:58:48;;;;;;;13.38;3.50;;;;;;;15.02;100.00;151427.09;1783998;79;21567;-66
2022/10/23 04:01:15;;;;;;;11.55;3.50;;;;;;;15.01;100.00;151424.48;1790689;79;21039;-64
2022/10/23 04:03:41;;;;;;;13.68;3.92;;;;;;;14.98;100.00;151417.95;1786176;79;21064;-65
2022/10/23 04:06:09;;;;;;;11.93;3.40;;;;;;;14.96;100.00;151412.75;1782833;79;21108;-65
2022/10/23 04:08:36;;;;;;;21.12;3.80;;;;;;;14.93;100.00;151403.67;1787201;79;21049;-65
2022/10/23 04:11:05;;;;;;;17.27;4.00;;;;;;;14.90;100.00;151398.42;1784910;79;21069;-65
2022/10/23 04:13:36;;;;;;;15.55;4.17;;;;;;;14.88;100.00;151393.22;1792044;79;21004;-64
2022/10/23 04:16:05;;;;;;;11.75;4.30;;;;;;;14.85;100.00;151384.14;1794452;79;21123;-66
2022/10/23 04:18:33;;;;;;;15.95;3.77;;;;;;;14.79;100.00;151369.81;1794122;79;21218;-64
2022/10/23 04:21:02;;;;;;;12.65;3.98;;;;;;;14.74;100.00;151358.09;1791195;79;21086;-64
2022/10/23 04:23:29;;;;;;;9.08;3.42;;;;;;;14.70;100.00;151347.62;1786789;79;21097;-65
2022/10/23 04:25:56;;;;;;;15.85;4.87;;;;;;;14.68;100.00;151341.11;1781964;79;21563;-65
2022/10/23 04:28:25;;;;;;;12.47;5.00;;;;;;;14.65;100.00;151333.31;1784470;79;21454;-65
2022/10/23 04:30:51;;;;;;;15.68;4.40;;;;;;;14.61;100.00;151325.50;1797781;78;21276;-65
2022/10/23 04:33:19;;;;;;;15.68;4.67;;;;;;;14.60;100.00;151321.63;1799870;78;21047;-65
2022/10/23 04:35:48;;;;;;;15.15;5.12;;;;;;;14.57;100.00;151315.09;1807403;78;21086;-64
2022/10/23 04:38:17;;;;;;;13.62;4.80;;;;;;;14.54;100.00;151307.30;1801956;78;21057;-66
2022/10/23 04:40:45;;;;;;;13.93;4.95;;;;;;;14.50;100.00;151296.91;1801970;78;21087;-66
2022/10/23 04:43:14;;;;;;;12.45;4.78;;;;;;;14.43;100.00;151278.66;1798082;78;21108;-65
2022/10/23 04:45:41;;;;;;;14.63;4.55;;;;;;;14.35;100.00;151257.84;1797293;78;21098;-64
2022/10/23 04:48:08;;;;;;;12.10;5.20;;;;;;;14.29;100.00;151244.84;1806587;78;21040;-65
2022/10/23 04:50:40;;;;;;;21.12;5.00;;;;;;;14.26;100.00;151235.72;1803634;78;21393;-65
2022/10/23 04:53:26;;;;;;;17.30;5.37;;;;;;;14.23;100.00;151229.20;1802047;78;21491;-64
2022/10/23 04:56:01;;;;;;;15.45;5.42;;;;;;;14.17;100.00;151213.59;1795110;78;21132;-62
2022/10/23 04:58:39;;;;;;;11.25;5.45;;;;;;;14.13;100.00;151204.48;1805017;78;21083;-62
2022/10/23 05:01:09;;;;;;;13.30;6.05;;;;;;;14.09;100.00;151194.08;1808092;78;20985;-63
2022/10/23 05:03:39;;;;;;;17.92;7.10;;;;;;;14.08;100.00;151190.20;1803771;78;21011;-63
2022/10/23 05:06:06;;;;;;;17.00;5.87;;;;;;;14.01;100.00;151174.56;1796613;79;21085;-63
2022/10/23 05:08:39;;;;;;;14.80;6.47;;;;;;;13.95;100.00;151158.97;1812672;78;21216;-63
2022/10/23 05:11:21;;;;;;;14.85;5.92;;;;;;;13.92;100.00;151151.17;1749821;78;21025;-63
2022/10/23 05:13:49;;;;;;;17.60;5.90;;;;;;;13.87;100.00;151138.17;1797698;78;21048;-63
2022/10/23 05:16:35;;;;;;;14.07;6.42;;;;;;;13.83;100.00;151129.05;1806069;78;21215;-62
2022/10/23 05:19:06;;;;;;;17.65;6.83;;;;;;;13.82;100.00;151125.17;1806412;78;21453;-64
2022/10/23 05:21:34;;;;;;;15.70;6.60;;;;;;;13.74;100.00;151105.66;1803463;78;21797;-62
2022/10/23 05:24:03;;;;;;;12.82;5.72;;;;;;;13.68;100.00;151091.34;1808329;78;21052;-63
2022/10/23 05:26:30;;;;;;;16.02;6.42;;;;;;;13.64;100.00;151080.94;1805063;78;21063;-63
2022/10/23 05:28:59;;;;;;;13.18;5.92;;;;;;;13.60;100.00;151071.83;1810407;78;21525;-62
2022/10/23 05:31:26;;;;;;;17.90;7.00;;;;;;;13.57;100.00;151062.70;1797174;78;21038;-63
2022/10/23 05:33:54;;;;;;;13.45;7.08;;;;;;;13.51;100.00;151047.11;1796249;78;21254;-62
2022/10/23 05:36:22;;;;;;;13.78;6.60;;;;;;;13.49;100.00;151043.23;1802016;78;21017;-62
2022/10/23 05:38:51;;;;;;;16.87;6.87;;;;;;;13.46;100.00;151036.72;1792672;78;21031;-66
2022/10/23 05:41:19;;;;;;;16.30;6.62;;;;;;;13.43;100.00;151027.59;1798191;78;21003;-65
2022/10/23 05:43:46;;;;;;;15.18;6.55;;;;;;;13.38;100.00;151014.56;1793507;78;21522;-66
2022/10/23 05:46:14;;;;;;;12.33;6.55;;;;;;;13.33;100.00;151002.84;1745930;78;21486;-66
2022/10/23 05:48:50;;;;;;;12.20;6.20;;;;;;;13.29;100.00;150993.78;1793352;78;20969;-65
2022/10/23 05:51:25;;;;;;;13.50;6.62;;;;;;;13.28;100.00;150989.86;1791459;78;21032;-65
2022/10/23 05:53:55;;;;;;;14.10;7.15;;;;;;;13.26;100.00;150984.66;1792772;79;21009;-66
2022/10/23 05:56:43;;;;;;;11.35;7.28;;;;;;;13.21;100.00;150972.94;1797058;78;21055;-65
2022/10/23 05:59:13;;;;;;;17.17;7.42;;;;;;;13.18;100.00;150966.47;1797088;78;21468;-64
2022/10/23 06:01:44;;;;;;;14.98;7.80;;;;;;;13.16;100.00;150961.28;1796536;78;21557;-64
2022/10/23 06:04:13;;;;;;;13.90;7.85;;;;;;;13.15;100.00;150958.67;1822139;78;21457;-65
2022/10/23 06:06:45;;;;;;;15.13;8.15;;;;;;;13.09;100.00;150941.77;1784644;78;21032;-64
2022/10/23 06:09:14;;;;;;;18.00;8.95;;;;;;;13.07;100.00;150937.84;1798460;78;21015;-65
2022/10/23 06:11:41;;;;;;;21.12;9.43;;;;;;;13.06;100.00;150935.25;1798080;78;21197;-65
2022/10/23 06:14:10;;;;;;;15.20;8.85;;;;;;;13.02;100.00;150924.86;1797981;78;21579;-66
2022/10/23 06:16:39;;;;;;;21.50;8.48;;;;;;;12.99;100.00;150917.06;1809130;78;21024;-65
2022/10/23 06:19:10;;;;;;;16.52;8.60;;;;;;;12.95;100.00;150907.95;1805209;78;20988;-66
2022/10/23 06:21:39;;;;;;;15.23;7.90;;;;;;;12.93;100.00;150901.44;1805145;78;21032;-64
2022/10/23 06:24:07;;;;;;;18.40;9.35;;;;;;;12.89;100.00;150892.37;1805614;78;21792;-64
2022/10/23 06:26:43;;;;;;;17.20;8.20;;;;;;;12.82;100.00;150874.13;1792737;78;21037;-64
2022/10/23 06:29:12;;;;;;;17.07;8.73;;;;;;;12.76;100.00;150859.88;1793046;78;21481;-65
2022/10/23 06:31:42;;;;;;;16.32;8.78;;;;;;;12.72;100.00;150850.77;1797981;78;21103;-65
2022/10/23 06:34:10;;;;;;;16.67;8.98;;;;;;;12.70;100.00;150845.56;1802280;78;21028;-65
2022/10/23 06:36:37;;;;;;;18.10;8.73;;;;;;;12.68;100.00;150839.05;1793864;78;21263;-65
2022/10/23 06:39:09;;;;;;;17.82;9.10;;;;;;;12.66;100.00;150833.84;1788848;79;21075;-64
2022/10/23 06:41:49;;;;;;;19.07;9.68;;;;;;;12.68;100.00;150840.37;1798180;78;21104;-65
2022/10/23 06:44:18;;;;;;;18.17;9.38;;;;;;;12.74;100.00;150854.67;1792150;78;21098;-66
2022/10/23 06:46:48;;;;;;;18.37;9.20;;;;;;;12.77;100.00;150861.16;1801946;78;21094;-66
2022/10/23 06:49:34;;;;;;;19.67;9.63;;;;;;;12.81;100.00;150872.86;1804302;78;21195;-65
2022/10/23 06:52:01;;;;;;;17.40;9.63;;;;;;;12.83;100.00;150876.78;1800018;78;21080;-65
2022/10/23 06:54:28;;;;;;;19.07;9.03;;;;;;;12.85;100.00;150883.25;1801607;78;21044;-65
2022/10/23 06:57:00;;;;;;;20.12;9.63;;;;;;;12.87;100.00;150887.17;1780025;78;21064;-62
2022/10/23 06:59:35;;;;;;;20.10;9.58;;;;;;;12.89;100.00;150892.37;1796868;78;21017;-61
2022/10/23 07:02:03;;;;;;;16.65;9.68;;;;;;;12.93;100.00;150901.44;1797249;78;21232;-63
2022/10/23 07:04:31;;;;;;;20.40;9.85;;;;;;;12.96;100.00;150909.27;1792844;78;21065;-62
2022/10/23 07:06:59;;;;;;;15.93;8.48;;;;;;;12.97;100.00;150913.14;1801721;78;21032;-62
2022/10/23 07:09:28;;;;;;;17.55;9.95;;;;;;;13.02;100.00;150924.86;1792914;79;21027;-62
2022/10/23 07:11:56;;;;;;;18.77;9.20;;;;;;;13.07;100.00;150937.84;1806036;78;21463;-62
2022/10/23 07:14:31;;;;;;;15.78;9.23;;;;;;;13.12;100.00;150950.84;1792057;78;21468;-61
2022/10/23 07:16:58;;;;;;;21.87;10.15;;;;;;;13.15;100.00;150958.67;1798979;78;21674;-62
2022/10/23 07:19:27;;;;;;;19.60;9.88;;;;;;;13.18;100.00;150966.47;1800572;78;20981;-62
2022/10/23 07:21:59;;;;;;;16.90;10.20;;;;;;;13.20;100.00;150969.06;1797940;78;21088;-62
2022/10/23 07:24:28;;;;;;;15.08;9.60;;;;;;;13.20;100.00;150969.06;1783171;78;21059;-61
2022/10/23 07:27:00;;;;;;;21.87;9.55;;;;;;;13.19;100.00;150967.75;1797894;78;21127;-61
2022/10/23 07:29:33;;;;;;;15.40;9.35;;;;;;;13.22;100.00;150974.27;1793627;78;21499;-62
2022/10/23 07:32:00;;;;;;;17.75;9.35;;;;;;;13.23;100.00;150978.14;1804336;78;21012;-62
2022/10/23 07:34:27;;;;;;;14.90;9.33;;;;;;;13.26;100.00;150984.66;1802988;79;21012;-62
2022/10/23 07:36:56;;;;;;;19.23;10.08;;;;;;;13.27;100.00;150988.58;1820911;78;21094;-65
2022/10/23 07:39:23;;;;;;;21.05;10.35;;;;;;;13.26;100.00;150985.97;1808350;78;21558;-65
2022/10/23 07:41:53;;;;;;;20.15;11.12;;;;;;;13.21;100.00;150972.94;1802546;78;21496;-65
2022/10/23 07:44:19;;;;;;;19.23;10.08;;;;;;;13.18;100.00;150965.16;1787730;79;21123;-66
2022/10/23 07:46:47;;;;;;;24.63;10.78;;;;;;;13.14;100.00;150956.03;1752583;81;21082;-65
2022/10/23 07:49:14;;;;;;;23.55;11.05;;;;;;;13.14;100.00;150954.75;1783218;79;21846;-64
2022/10/23 07:51:41;;;;;;;18.02;10.82;;;;;;;13.12;100.00;150950.84;1760975;81;21270;-65
2022/10/23 07:54:11;;;;;;;16.30;10.65;;;;;;;13.15;100.00;150958.67;1764804;81;21126;-65
2022/10/23 07:56:40;;;;;;;20.82;9.98;;;;;;;13.20;100.00;150969.06;1766431;78;20924;-65
2022/10/23 07:59:17;;;;;;;21.25;10.70;;;;;;;13.28;100.00;150989.86;1813177;78;21575;-65
2022/10/23 08:01:55;;;;;;;19.32;10.85;;;;;;;13.35;100.00;151008.03;1807080;78;21088;-65
2022/10/23 08:04:23;;;;;;;17.62;11.53;;;;;;;13.41;100.00;151022.34;1803113;78;21844;-65
2022/10/23 08:06:59;;;;;;;18.85;10.55;;;;;;;13.44;100.00;151031.52;1814672;78;21059;-65
2022/10/23 08:09:27;;;;;;;22.45;11.08;;;;;;;13.49;100.00;151041.92;1803018;79;21125;-65
2022/10/23 08:11:56;;;;;;;19.77;11.57;;;;;;;13.55;100.00;151058.83;1807267;78;21012;-66
2022/10/23 08:14:23;;;;;;;18.87;10.98;;;;;;;13.61;100.00;151073.14;1811985;78;21421;-66
2022/10/23 08:16:51;;;;;;;17.32;11.12;;;;;;;13.68;100.00;151091.34;1802656;78;21617;-66
2022/10/23 08:19:17;;;;;;;17.82;11.50;;;;;;;13.79;100.00;151117.33;1802671;78;21508;-65
2022/10/23 08:21:45;;;;;;;22.10;11.22;;;;;;;13.86;100.00;151136.84;1807317;78;21086;-66
2022/10/23 08:24:13;;;;;;;24.90;11.97;;;;;;;13.92;100.00;151151.17;1804166;78;21278;-65
2022/10/23 08:26:44;;;;;;;22.17;11.95;;;;;;;13.96;100.00;151161.56;1804783;78;21175;-66
2022/10/23 08:29:11;;;;;;;18.85;11.43;;;;;;;14.02;100.00;151177.16;1802740;78;21109;-65
2022/10/23 08:31:38;;;;;;;18.52;12.90;;;;;;;14.04;100.00;151181.08;1795662;79;21520;-65
2022/10/23 08:34:17;;;;;;;20.00;12.53;;;;;;;14.06;100.00;151185.00;1801465;79;21024;-65
2022/10/23 08:36:45;;;;;;;20.10;12.23;;;;;;;14.08;100.00;151190.20;1798380;78;21026;-66
2022/10/23 08:39:12;;;;;;;23.52;12.73;;;;;;;14.06;100.00;151186.28;1800052;79;21083;-66
2022/10/23 08:41:49;;;;;;;23.95;12.78;;;;;;;14.04;100.00;151182.41;1797937;79;21816;-66
2022/10/23 08:44:33;;;;;;;19.10;12.63;;;;;;;14.04;100.00;151181.08;1799997;79;21043;-66
2022/10/23 08:47:35;;;;;;;20.27;13.10;;;;;;;14.05;100.00;151183.69;1797714;79;21087;-66
2022/10/23 08:50:44;;;;;;;18.52;12.60;;;;;;;14.06;100.00;151185.00;1799972;79;20996;-66
2022/10/23 08:53:31;;;;;;;21.68;13.10;;;;;;;14.01;100.00;151174.56;1806373;78;21487;-66
2022/10/23 08:56:07;;;;;;;20.35;13.55;;;;;;;13.99;100.00;151169.36;1795206;79;21283;-67
2022/10/23 08:58:57;;;;;;;24.00;13.40;;;;;;;14.00;100.00;151171.97;1795743;79;22313;-61
2022/10/23 09:01:46;;;;;;;23.32;14.03;;;;;;;14.01;100.00;151174.56;1798913;79;21024;-62
2022/10/23 09:04:13;;;;;;;18.90;13.10;;;;;;;14.00;100.00;151171.97;1784602;78;21397;-62
2022/10/23 09:07:11;;;;;;;20.82;13.35;;;;;;;13.99;100.00;151169.36;1784560;79;21067;-62
2022/10/23 09:10:19;;;;;;;21.70;14.13;;;;;;;13.97;100.00;151162.89;1799288;79;21293;-62
2022/10/23 09:12:45;;;;;;;23.12;14.68;;;;;;;13.94;100.00;151156.38;1797418;79;21449;-62
2022/10/23 09:15:27;;;;;;;25.02;13.88;;;;;;;13.90;100.00;151145.97;1803996;78;21052;-63
2022/10/23 09:17:58;;;;;;;24.07;14.28;;;;;;;13.88;100.00;151142.05;1794974;79;21461;-66
2022/10/23 09:20:34;;;;;;;26.40;14.13;;;;;;;13.90;100.00;151145.97;1798088;79;21083;-65
2022/10/23 09:23:08;;;;;;;20.50;13.88;;;;;;;13.96;100.00;151161.56;1797645;79;22106;-65
2022/10/23 09:25:39;;;;;;;23.90;14.10;;;;;;;14.02;100.00;151175.87;1799362;79;23104;-66
2022/10/23 09:28:10;;;;;;;26.17;14.43;;;;;;;14.08;100.00;151190.20;1803703;79;20992;-66
2022/10/23 09:30:40;;;;;;;20.75;13.18;;;;;;;14.11;100.00;151198.00;1804393;79;20944;-65
2022/10/23 09:33:23;;;;;;;21.85;13.43;;;;;;;14.11;100.00;151198.00;1802055;78;21059;-66
2022/10/23 09:36:00;;;;;;;20.72;14.07;;;;;;;14.10;100.00;151196.69;1796814;78;21889;-66
2022/10/23 09:38:32;;;;;;;17.75;12.15;;;;;;;14.11;100.00;151198.00;1802500;78;21040;-66
2022/10/23 09:41:08;;;;;;;16.23;11.63;;;;;;;14.11;100.00;151198.00;1800569;78;21027;-66
2022/10/23 09:43:36;;;;;;;18.55;12.58;;;;;;;14.14;100.00;151205.81;1788120;78;21056;-65
2022/10/23 09:46:05;;;;;;;21.62;13.15;;;;;;;14.17;100.00;151213.59;1769551;78;21556;-65
2022/10/23 09:48:34;;;;;;;21.57;12.40;;;;;;;14.18;100.00;151216.20;1804343;78;21475;-67
2022/10/23 09:51:14;;;;;;;20.25;12.45;;;;;;;14.19;100.00;151218.81;1794052;78;21035;-67
2022/10/23 09:53:57;;;;;;;18.77;12.68;;;;;;;14.22;100.00;151225.33;1816473;78;20956;-67
2022/10/23 09:56:35;;;;;;;20.00;12.30;;;;;;;14.25;100.00;151233.13;1793673;79;21391;-66
2022/10/23 09:59:15;;;;;;;19.42;13.22;;;;;;;14.31;100.00;151250.05;1797009;78;21079;-63
2022/10/23 10:01:49;;;;;;;22.35;13.13;;;;;;;14.41;99.77;151274.78;1795465;78;22389;-62
2022/10/23 10:04:38;;;;;;;17.15;13.05;;;;;;;14.46;99.38;151287.78;1791214;78;21019;-63
2022/10/23 10:07:18;;;;;;;18.07;13.10;;;;;;;14.53;99.43;151303.38;1797931;78;21060;-65
2022/10/23 10:09:45;;;;;;;19.42;13.25;;;;;;;14.63;98.39;151328.11;1799684;78;21545;-66
2022/10/23 10:12:45;;;;;;;23.42;12.75;;;;;;;14.70;97.85;151346.31;1797540;78;21521;-65
2022/10/23 10:15:23;;;;;;;18.80;11.57;;;;;;;14.78;96.96;151365.89;1802116;78;22414;-65
2022/10/23 10:18:18;;;;;;;18.12;12.73;;;;;;;14.84;95.83;151381.55;1816804;78;21003;-65
2022/10/23 10:21:03;;;;;;;18.02;12.55;;;;;;;14.86;95.57;151388.03;1801820;78;21091;-66
2022/10/23 10:23:45;;;;;;;18.52;12.20;;;;;;;14.91;95.36;151399.75;1778719;78;21062;-66
2022/10/23 10:26:43;;;;;;;14.33;10.80;;;;;;;14.95;94.83;151410.16;1802635;78;20957;-66
2022/10/23 10:29:29;;;;;;;15.78;11.35;;;;;;;14.97;93.54;151414.08;1816706;78;21134;-66
2022/10/23 10:32:17;;;;;;;16.65;10.98;;;;;;;14.97;92.81;151415.36;1803898;78;21057;-65
2022/10/23 10:34:55;;;;;;;15.03;11.12;;;;;;;14.99;92.20;151419.28;1780104;78;20999;-65
2022/10/23 10:37:44;;;;;;;16.32;12.00;;;;;;;15.00;92.08;151421.88;1804733;78;21035;-65
2022/10/23 10:40:28;;;;;;;17.60;12.65;;;;;;;14.98;91.03;151416.69;1797188;78;20964;-65
2022/10/23 10:43:17;;;;;;;19.10;12.37;;;;;;;14.93;91.10;151403.67;1806668;78;21746;-65
2022/10/23 10:45:47;;;;;;;18.15;12.63;;;;;;;14.90;90.97;151398.42;1802464;78;21035;-66
2022/10/23 10:48:31;;;;;;;16.27;12.30;;;;;;;14.88;91.23;151393.22;1803174;78;21036;-66
2022/10/23 10:51:05;;;;;;;17.92;12.10;;;;;;;14.89;91.60;151394.55;1759965;79;21466;-65
2022/10/23 10:54:01;;;;;;;18.30;13.05;;;;;;;14.92;92.36;151402.34;1754372;80;21091;-65
2022/10/23 10:56:30;;;;;;;15.98;11.83;;;;;;;14.97;92.18;151414.08;1728061;81;21285;-65
2022/10/23 10:59:02;;;;;;;17.42;10.78;;;;;;;15.04;92.08;151432.28;1766702;79;21111;-65
2022/10/23 11:01:37;;;;;;;14.28;9.55;;;;;;;15.11;91.64;151450.50;1772452;79;21423;-65
2022/10/23 11:04:12;;;;;;;14.75;10.63;;;;;;;15.16;91.34;151463.56;1767823;79;20986;-65
2022/10/23 11:06:39;;;;;;;22.13;10.93;;;;;;;15.21;91.77;151473.97;1761342;80;21108;-66
2022/10/23 11:09:17;;;;;;;15.68;11.28;;;;;;;15.26;91.21;151488.30;1762364;80;21130;-63
2022/10/23 11:11:46;;;;;;;18.65;11.93;;;;;;;15.28;91.27;151493.50;1736247;81;21048;-62
2022/10/23 11:14:22;;;;;;;21.48;10.50;;;;;;;15.31;91.25;151501.30;1755186;81;20999;-65
2022/10/23 11:17:04;;;;;;;19.00;10.65;;;;;;;15.38;91.05;151518.23;1709605;81;21094;-65
2022/10/23 11:19:59;;;;;;;14.35;9.83;;;;;;;15.47;90.90;151541.66;1726438;81;21071;-65
2022/10/23 11:22:39;;;;;;;16.67;10.58;;;;;;;15.57;89.89;151566.41;1758263;80;21248;-65
2022/10/23 11:25:49;;;;;;;13.32;9.80;;;;;;;15.63;89.19;151580.73;1762846;80;21076;-64
2022/10/23 11:28:33;;;;;;;16.70;9.65;;;;;;;15.59;88.53;151570.33;1756408;80;21084;-65
2022/10/23 11:31:55;;;;;;;20.43;9.25;;;;;;;15.50;88.16;151546.86;1775996;80;21040;-64
2022/10/23 11:34:40;;;;;;;16.02;9.58;;;;;;;15.45;87.90;151536.45;1745866;81;21076;-65
2022/10/23 11:37:07;;;;;;;14.73;10.50;;;;;;;15.48;89.04;151542.98;1763947;80;22676;-64
2022/10/23 11:39:36;;;;;;;14.70;9.98;;;;;;;15.62;89.43;151578.12;1768153;80;21008;-64